sensor_id;sensor_type;location;lat;lon;timestamp;temperature;humidity
16313;DHT22;8265;52.622;13.296;2023-05-10T00:02:51;10.20;61.50
16313;DHT22;8265;52.622;13.296;2023-05-10T00:08:12;9.80;63.50
16313;DHT22;8265;52.622;13.296;2023-05-10T00:13:33;9.60;63.80
16313;DHT22;8265;52.622;13.296;2023-05-10T00:18:54;9.50;64.80
16313;DHT22;8265;52.622;13.296;2023-05-10T00:24:15;9.50;64.30
16313;DHT22;8265;52.622;13.296;2023-05-10T00:29:36;9.40;65.10
16313;DHT22;8265;52.622;13.296;2023-05-10T00:34:57;9.20;65.50
16313;DHT22;8265;52.622;13.296;2023-05-10T00:40:18;9.20;65.50
16313;DHT22;8265;52.622;13.296;2023-05-10T00:45:39;9.20;65.60
16313;DHT22;8265;52.622;13.296;2023-05-10T00:51:01;9.00;66.30
16313;DHT22;8265;52.622;13.296;2023-05-10T00:56:21;9.00;66.50
16313;DHT22;8265;52.622;13.296;2023-05-10T01:01:43;8.90;67.20
16313;DHT22;8265;52.622;13.296;2023-05-10T01:07:03;8.90;66.60
16313;DHT22;8265;52.622;13.296;2023-05-10T01:12:24;8.90;67.00
16313;DHT22;8265;52.622;13.296;2023-05-10T01:17:45;8.70;67.80
16313;DHT22;8265;52.622;13.296;2023-05-10T01:29:04;8.50;69.20
16313;DHT22;8265;52.622;13.296;2023-05-10T01:39:17;8.20;70.60
16313;DHT22;8265;52.622;13.296;2023-05-10T01:49:55;8.00;71.90
16313;DHT22;8265;52.622;13.296;2023-05-10T01:55:16;7.80;72.50
16313;DHT22;8265;52.622;13.296;2023-05-10T02:00:34;7.80;72.30
16313;DHT22;8265;52.622;13.296;2023-05-10T02:05:54;7.80;72.40
16313;DHT22;8265;52.622;13.296;2023-05-10T02:11:15;7.60;73.00
16313;DHT22;8265;52.622;13.296;2023-05-10T02:16:36;7.50;73.50
16313;DHT22;8265;52.622;13.296;2023-05-10T02:21:57;7.50;73.40
16313;DHT22;8265;52.622;13.296;2023-05-10T02:27:18;7.50;73.90
16313;DHT22;8265;52.622;13.296;2023-05-10T02:32:39;7.40;74.00
16313;DHT22;8265;52.622;13.296;2023-05-10T02:38:00;7.30;74.50
16313;DHT22;8265;52.622;13.296;2023-05-10T02:43:21;7.30;74.60
16313;DHT22;8265;52.622;13.296;2023-05-10T02:48:42;7.40;74.50
16313;DHT22;8265;52.622;13.296;2023-05-10T02:54:10;7.50;73.80
16313;DHT22;8265;52.622;13.296;2023-05-10T02:59:24;7.40;73.80
16313;DHT22;8265;52.622;13.296;2023-05-10T03:04:45;7.40;74.90
16313;DHT22;8265;52.622;13.296;2023-05-10T03:10:06;7.40;74.10
16313;DHT22;8265;52.622;13.296;2023-05-10T03:20:49;7.50;73.60
16313;DHT22;8265;52.622;13.296;2023-05-10T03:26:09;7.50;73.90
16313;DHT22;8265;52.622;13.296;2023-05-10T03:31:30;7.50;73.50
16313;DHT22;8265;52.622;13.296;2023-05-10T03:36:51;7.50;73.20
16313;DHT22;8265;52.622;13.296;2023-05-10T03:42:12;7.60;72.80
16313;DHT22;8265;52.622;13.296;2023-05-10T03:47:33;7.60;73.00
16313;DHT22;8265;52.622;13.296;2023-05-10T03:52:54;7.80;71.50
16313;DHT22;8265;52.622;13.296;2023-05-10T03:58:15;8.00;70.50
16313;DHT22;8265;52.622;13.296;2023-05-10T04:03:36;8.10;70.40
16313;DHT22;8265;52.622;13.296;2023-05-10T04:08:57;8.40;68.70
16313;DHT22;8265;52.622;13.296;2023-05-10T04:14:18;8.60;68.30
16313;DHT22;8265;52.622;13.296;2023-05-10T04:19:39;8.70;67.10
16313;DHT22;8265;52.622;13.296;2023-05-10T04:25:00;9.00;66.20
16313;DHT22;8265;52.622;13.296;2023-05-10T04:30:21;9.00;65.80
16313;DHT22;8265;52.622;13.296;2023-05-10T04:35:42;9.20;64.90
16313;DHT22;8265;52.622;13.296;2023-05-10T04:41:07;9.40;64.30
16313;DHT22;8265;52.622;13.296;2023-05-10T04:46:24;9.50;64.50
16313;DHT22;8265;52.622;13.296;2023-05-10T04:51:45;9.70;62.90
16313;DHT22;8265;52.622;13.296;2023-05-10T04:57:06;10.00;62.30
16313;DHT22;8265;52.622;13.296;2023-05-10T05:02:27;10.10;62.50
16313;DHT22;8265;52.622;13.296;2023-05-10T05:07:48;10.10;61.60
16313;DHT22;8265;52.622;13.296;2023-05-10T05:13:09;10.30;61.70
16313;DHT22;8265;52.622;13.296;2023-05-10T05:18:30;10.40;61.40
16313;DHT22;8265;52.622;13.296;2023-05-10T05:23:51;10.60;61.70
16313;DHT22;8265;52.622;13.296;2023-05-10T05:29:12;10.70;61.00
16313;DHT22;8265;52.622;13.296;2023-05-10T05:34:33;10.90;60.80
16313;DHT22;8265;52.622;13.296;2023-05-10T05:39:54;11.10;59.90
16313;DHT22;8265;52.622;13.296;2023-05-10T05:45:15;11.30;60.30
16313;DHT22;8265;52.622;13.296;2023-05-10T05:50:36;11.50;59.20
16313;DHT22;8265;52.622;13.296;2023-05-10T05:55:58;11.70;59.20
16313;DHT22;8265;52.622;13.296;2023-05-10T06:01:18;11.90;58.30
16313;DHT22;8265;52.622;13.296;2023-05-10T06:06:39;12.10;58.20
16313;DHT22;8265;52.622;13.296;2023-05-10T06:12:00;12.30;57.20
16313;DHT22;8265;52.622;13.296;2023-05-10T06:17:21;12.50;57.40
16313;DHT22;8265;52.622;13.296;2023-05-10T06:22:42;12.70;56.30
16313;DHT22;8265;52.622;13.296;2023-05-10T06:28:03;12.80;56.70
16313;DHT22;8265;52.622;13.296;2023-05-10T06:33:24;13.10;56.20
16313;DHT22;8265;52.622;13.296;2023-05-10T06:38:45;13.30;56.10
16313;DHT22;8265;52.622;13.296;2023-05-10T06:44:06;13.50;55.90
16313;DHT22;8265;52.622;13.296;2023-05-10T06:49:27;13.60;54.90
16313;DHT22;8265;52.622;13.296;2023-05-10T06:54:48;13.80;54.40
16313;DHT22;8265;52.622;13.296;2023-05-10T07:00:09;13.90;54.30
16313;DHT22;8265;52.622;13.296;2023-05-10T07:05:30;14.10;54.30
16313;DHT22;8265;52.622;13.296;2023-05-10T07:10:51;14.20;54.00
16313;DHT22;8265;52.622;13.296;2023-05-10T07:16:12;14.30;54.00
16313;DHT22;8265;52.622;13.296;2023-05-10T07:21:33;14.40;53.80
16313;DHT22;8265;52.622;13.296;2023-05-10T07:26:54;14.60;53.70
16313;DHT22;8265;52.622;13.296;2023-05-10T07:32:15;14.80;53.50
16313;DHT22;8265;52.622;13.296;2023-05-10T07:37:36;14.80;53.20
16313;DHT22;8265;52.622;13.296;2023-05-10T07:42:57;15.00;53.40
16313;DHT22;8265;52.622;13.296;2023-05-10T07:48:18;15.10;52.70
16313;DHT22;8265;52.622;13.296;2023-05-10T07:53:39;15.40;52.80
16313;DHT22;8265;52.622;13.296;2023-05-10T07:59:01;15.60;52.50
16313;DHT22;8265;52.622;13.296;2023-05-10T08:04:21;15.80;52.50
16313;DHT22;8265;52.622;13.296;2023-05-10T08:09:42;16.00;52.60
16313;DHT22;8265;52.622;13.296;2023-05-10T08:15:03;16.10;51.00
16313;DHT22;8265;52.622;13.296;2023-05-10T08:20:24;16.00;51.80
16313;DHT22;8265;52.622;13.296;2023-05-10T08:25:45;16.30;52.30
16313;DHT22;8265;52.622;13.296;2023-05-10T08:31:06;16.40;51.40
16313;DHT22;8265;52.622;13.296;2023-05-10T08:36:27;16.70;50.90
16313;DHT22;8265;52.622;13.296;2023-05-10T08:41:48;16.80;50.00
16313;DHT22;8265;52.622;13.296;2023-05-10T08:47:09;16.90;49.80
16313;DHT22;8265;52.622;13.296;2023-05-10T08:52:30;17.00;50.20
16313;DHT22;8265;52.622;13.296;2023-05-10T08:57:51;17.30;50.10
16313;DHT22;8265;52.622;13.296;2023-05-10T09:03:12;17.20;49.70
16313;DHT22;8265;52.622;13.296;2023-05-10T09:08:33;17.50;49.50
16313;DHT22;8265;52.622;13.296;2023-05-10T09:13:54;17.80;48.40
16313;DHT22;8265;52.622;13.296;2023-05-10T09:19:15;18.00;47.90
16313;DHT22;8265;52.622;13.296;2023-05-10T09:24:36;18.10;47.60
16313;DHT22;8265;52.622;13.296;2023-05-10T09:29:57;18.10;47.90
16313;DHT22;8265;52.622;13.296;2023-05-10T09:35:19;18.30;46.80
16313;DHT22;8265;52.622;13.296;2023-05-10T09:40:39;18.50;47.20
16313;DHT22;8265;52.622;13.296;2023-05-10T09:46:00;18.70;47.50
16313;DHT22;8265;52.622;13.296;2023-05-10T09:51:22;18.90;47.10
16313;DHT22;8265;52.622;13.296;2023-05-10T09:56:42;19.10;46.10
16313;DHT22;8265;52.622;13.296;2023-05-10T10:02:03;18.90;46.90
16313;DHT22;8265;52.622;13.296;2023-05-10T10:07:24;19.10;46.20
16313;DHT22;8265;52.622;13.296;2023-05-10T10:12:45;19.30;45.50
16313;DHT22;8265;52.622;13.296;2023-05-10T10:18:06;19.60;45.20
16313;DHT22;8265;52.622;13.296;2023-05-10T10:23:27;19.60;45.80
16313;DHT22;8265;52.622;13.296;2023-05-10T10:34:09;19.70;45.30
16313;DHT22;8265;52.622;13.296;2023-05-10T10:39:30;19.90;45.00
16313;DHT22;8265;52.622;13.296;2023-05-10T10:45:00;20.10;45.10
16313;DHT22;8265;52.622;13.296;2023-05-10T10:50:12;20.00;44.00
16313;DHT22;8265;52.622;13.296;2023-05-10T10:55:33;20.10;45.70
16313;DHT22;8265;52.622;13.296;2023-05-10T11:01:08;20.50;45.20
16313;DHT22;8265;52.622;13.296;2023-05-10T11:06:16;20.60;44.30
16313;DHT22;8265;52.622;13.296;2023-05-10T11:11:37;20.80;44.40
16313;DHT22;8265;52.622;13.296;2023-05-10T11:16:57;20.80;43.60
16313;DHT22;8265;52.622;13.296;2023-05-10T11:22:18;21.10;43.60
16313;DHT22;8265;52.622;13.296;2023-05-10T11:27:39;21.10;42.90
16313;DHT22;8265;52.622;13.296;2023-05-10T11:33:00;21.50;42.30
16313;DHT22;8265;52.622;13.296;2023-05-10T11:38:21;21.50;42.10
16313;DHT22;8265;52.622;13.296;2023-05-10T11:43:42;21.70;41.70
16313;DHT22;8265;52.622;13.296;2023-05-10T11:49:03;21.70;42.30
16313;DHT22;8265;52.622;13.296;2023-05-10T11:54:24;21.80;42.70
16313;DHT22;8265;52.622;13.296;2023-05-10T11:59:52;22.20;40.90
16313;DHT22;8265;52.622;13.296;2023-05-10T12:05:06;22.50;41.20
16313;DHT22;8265;52.622;13.296;2023-05-10T12:10:27;22.70;42.20
16313;DHT22;8265;52.622;13.296;2023-05-10T12:15:48;22.80;40.70
16313;DHT22;8265;52.622;13.296;2023-05-10T12:21:12;22.90;41.50
16313;DHT22;8265;52.622;13.296;2023-05-10T12:26:30;22.90;40.70
16313;DHT22;8265;52.622;13.296;2023-05-10T12:31:52;22.70;40.90
16313;DHT22;8265;52.622;13.296;2023-05-10T12:37:12;22.90;40.60
16313;DHT22;8265;52.622;13.296;2023-05-10T12:42:34;23.30;39.00
16313;DHT22;8265;52.622;13.296;2023-05-10T12:47:54;23.50;39.40
16313;DHT22;8265;52.622;13.296;2023-05-10T12:53:15;23.30;39.90
16313;DHT22;8265;52.622;13.296;2023-05-10T12:58:36;23.50;39.90
16313;DHT22;8265;52.622;13.296;2023-05-10T13:03:57;23.60;39.00
16313;DHT22;8265;52.622;13.296;2023-05-10T13:09:18;23.80;39.60
16313;DHT22;8265;52.622;13.296;2023-05-10T13:14:39;24.40;38.70
16313;DHT22;8265;52.622;13.296;2023-05-10T13:20:00;24.60;38.70
16313;DHT22;8265;52.622;13.296;2023-05-10T13:25:21;24.40;38.20
16313;DHT22;8265;52.622;13.296;2023-05-10T13:30:42;24.80;40.00
16313;DHT22;8265;52.622;13.296;2023-05-10T13:36:03;24.90;38.90
16313;DHT22;8265;52.622;13.296;2023-05-10T13:41:24;24.50;39.00
16313;DHT22;8265;52.622;13.296;2023-05-10T13:46:45;25.00;38.40
16313;DHT22;8265;52.622;13.296;2023-05-10T13:52:06;25.30;37.50
16313;DHT22;8265;52.622;13.296;2023-05-10T13:57:27;25.50;36.90
16313;DHT22;8265;52.622;13.296;2023-05-10T14:02:48;25.60;38.50
16313;DHT22;8265;52.622;13.296;2023-05-10T14:08:09;26.00;35.90
16313;DHT22;8265;52.622;13.296;2023-05-10T14:13:30;27.00;34.80
16313;DHT22;8265;52.622;13.296;2023-05-10T14:18:51;27.30;34.90
16313;DHT22;8265;52.622;13.296;2023-05-10T14:24:12;27.50;35.10
16313;DHT22;8265;52.622;13.296;2023-05-10T14:29:33;28.40;33.80
16313;DHT22;8265;52.622;13.296;2023-05-10T14:34:54;27.80;33.40
16313;DHT22;8265;52.622;13.296;2023-05-10T14:40:15;28.50;32.30
16313;DHT22;8265;52.622;13.296;2023-05-10T14:45:36;28.10;33.70
16313;DHT22;8265;52.622;13.296;2023-05-10T14:50:57;27.50;33.10
16313;DHT22;8265;52.622;13.296;2023-05-10T14:56:18;26.80;33.70
16313;DHT22;8265;52.622;13.296;2023-05-10T15:01:39;26.40;33.30
16313;DHT22;8265;52.622;13.296;2023-05-10T15:07:00;25.60;34.70
16313;DHT22;8265;52.622;13.296;2023-05-10T15:12:21;24.90;35.80
16313;DHT22;8265;52.622;13.296;2023-05-10T15:17:42;25.80;34.00
16313;DHT22;8265;52.622;13.296;2023-05-10T15:23:03;26.30;33.90
16313;DHT22;8265;52.622;13.296;2023-05-10T15:28:24;26.90;35.20
16313;DHT22;8265;52.622;13.296;2023-05-10T15:33:45;27.70;33.30
16313;DHT22;8265;52.622;13.296;2023-05-10T15:39:06;27.50;32.50
16313;DHT22;8265;52.622;13.296;2023-05-10T15:44:27;25.40;35.10
16313;DHT22;8265;52.622;13.296;2023-05-10T15:49:48;24.40;36.20
16313;DHT22;8265;52.622;13.296;2023-05-10T15:55:09;23.60;37.10
16313;DHT22;8265;52.622;13.296;2023-05-10T16:00:30;23.20;38.30
16313;DHT22;8265;52.622;13.296;2023-05-10T16:05:51;22.60;39.30
16313;DHT22;8265;52.622;13.296;2023-05-10T16:11:12;21.90;40.10
16313;DHT22;8265;52.622;13.296;2023-05-10T16:16:33;21.50;40.40
16313;DHT22;8265;52.622;13.296;2023-05-10T16:21:54;21.20;40.60
16313;DHT22;8265;52.622;13.296;2023-05-10T16:27:15;21.40;40.50
16313;DHT22;8265;52.622;13.296;2023-05-10T16:32:36;21.50;40.70
16313;DHT22;8265;52.622;13.296;2023-05-10T16:37:57;21.90;49.10
16313;DHT22;8265;52.622;13.296;2023-05-10T16:43:18;21.30;52.20
16313;DHT22;8265;52.622;13.296;2023-05-10T16:48:39;22.50;51.00
16313;DHT22;8265;52.622;13.296;2023-05-10T16:54:00;23.20;50.40
16313;DHT22;8265;52.622;13.296;2023-05-10T16:59:21;22.90;50.20
16313;DHT22;8265;52.622;13.296;2023-05-10T17:04:42;21.30;54.10
16313;DHT22;8265;52.622;13.296;2023-05-10T17:10:03;21.60;53.90
16313;DHT22;8265;52.622;13.296;2023-05-10T17:15:24;21.40;54.30
16313;DHT22;8265;52.622;13.296;2023-05-10T17:20:45;21.30;55.00
16313;DHT22;8265;52.622;13.296;2023-05-10T17:26:06;21.00;55.80
16313;DHT22;8265;52.622;13.296;2023-05-10T17:31:27;20.20;57.30
16313;DHT22;8265;52.622;13.296;2023-05-10T17:36:48;19.90;58.30
16313;DHT22;8265;52.622;13.296;2023-05-10T17:42:09;19.50;59.40
16313;DHT22;8265;52.622;13.296;2023-05-10T17:47:30;19.10;60.80
16313;DHT22;8265;52.622;13.296;2023-05-10T17:52:51;18.40;63.10
16313;DHT22;8265;52.622;13.296;2023-05-10T17:58:12;18.00;64.60
16313;DHT22;8265;52.622;13.296;2023-05-10T18:03:33;17.80;65.80
16313;DHT22;8265;52.622;13.296;2023-05-10T18:08:54;17.50;67.10
16313;DHT22;8265;52.622;13.296;2023-05-10T18:14:15;17.30;67.50
16313;DHT22;8265;52.622;13.296;2023-05-10T18:19:36;17.10;67.50
16313;DHT22;8265;52.622;13.296;2023-05-10T18:24:57;17.00;68.40
16313;DHT22;8265;52.622;13.296;2023-05-10T18:30:18;16.80;69.60
16313;DHT22;8265;52.622;13.296;2023-05-10T18:35:39;16.50;70.20
16313;DHT22;8265;52.622;13.296;2023-05-10T18:41:00;16.40;70.90
16313;DHT22;8265;52.622;13.296;2023-05-10T18:46:21;16.20;71.80
16313;DHT22;8265;52.622;13.296;2023-05-10T18:51:42;16.00;72.50
16313;DHT22;8265;52.622;13.296;2023-05-10T18:57:03;15.80;73.60
16313;DHT22;8265;52.622;13.296;2023-05-10T19:02:24;15.60;74.40
16313;DHT22;8265;52.622;13.296;2023-05-10T19:07:45;15.50;75.10
16313;DHT22;8265;52.622;13.296;2023-05-10T19:13:06;15.30;75.50
16313;DHT22;8265;52.622;13.296;2023-05-10T19:18:27;15.10;76.20
16313;DHT22;8265;52.622;13.296;2023-05-10T19:23:48;14.90;76.90
16313;DHT22;8265;52.622;13.296;2023-05-10T19:29:09;14.60;77.80
16313;DHT22;8265;52.622;13.296;2023-05-10T19:34:30;14.50;78.30
16313;DHT22;8265;52.622;13.296;2023-05-10T19:39:51;14.30;78.80
16313;DHT22;8265;52.622;13.296;2023-05-10T19:45:12;14.20;79.20
16313;DHT22;8265;52.622;13.296;2023-05-10T19:50:33;13.90;80.70
16313;DHT22;8265;52.622;13.296;2023-05-10T19:55:55;13.70;81.00
16313;DHT22;8265;52.622;13.296;2023-05-10T20:01:15;13.70;81.10
16313;DHT22;8265;52.622;13.296;2023-05-10T20:06:36;13.50;81.70
16313;DHT22;8265;52.622;13.296;2023-05-10T20:11:57;13.30;82.30
16313;DHT22;8265;52.622;13.296;2023-05-10T20:17:18;13.00;83.30
16313;DHT22;8265;52.622;13.296;2023-05-10T20:22:40;12.70;84.80
16313;DHT22;8265;52.622;13.296;2023-05-10T20:28:00;12.70;84.40
16313;DHT22;8265;52.622;13.296;2023-05-10T20:33:21;12.60;84.90
16313;DHT22;8265;52.622;13.296;2023-05-10T20:38:42;12.30;85.80
16313;DHT22;8265;52.622;13.296;2023-05-10T20:44:04;12.10;87.10
16313;DHT22;8265;52.622;13.296;2023-05-10T20:49:24;12.00;87.10
16313;DHT22;8265;52.622;13.296;2023-05-10T20:54:45;11.90;87.50
16313;DHT22;8265;52.622;13.296;2023-05-10T21:00:07;11.80;88.10
16313;DHT22;8265;52.622;13.296;2023-05-10T21:05:27;11.70;88.00
16313;DHT22;8265;52.622;13.296;2023-05-10T21:10:48;11.60;88.20
16313;DHT22;8265;52.622;13.296;2023-05-10T21:16:09;11.30;88.70
16313;DHT22;8265;52.622;13.296;2023-05-10T21:21:30;11.20;89.70
16313;DHT22;8265;52.622;13.296;2023-05-10T21:26:51;11.30;89.70
16313;DHT22;8265;52.622;13.296;2023-05-10T21:32:13;11.10;90.10
16313;DHT22;8265;52.622;13.296;2023-05-10T21:37:33;11.40;89.00
16313;DHT22;8265;52.622;13.296;2023-05-10T21:42:54;11.30;89.00
16313;DHT22;8265;52.622;13.296;2023-05-10T21:48:15;11.10;89.60
16313;DHT22;8265;52.622;13.296;2023-05-10T21:53:37;11.00;90.30
16313;DHT22;8265;52.622;13.296;2023-05-10T21:58:57;11.10;89.70
16313;DHT22;8265;52.622;13.296;2023-05-10T22:04:18;11.20;88.00
16313;DHT22;8265;52.622;13.296;2023-05-10T22:09:40;11.10;88.70
16313;DHT22;8265;52.622;13.296;2023-05-10T22:15:00;11.20;89.20
16313;DHT22;8265;52.622;13.296;2023-05-10T22:20:22;11.40;88.90
16313;DHT22;8265;52.622;13.296;2023-05-10T22:25:42;11.70;87.20
16313;DHT22;8265;52.622;13.296;2023-05-10T22:31:07;11.50;88.00
16313;DHT22;8265;52.622;13.296;2023-05-10T22:36:25;11.70;87.80
16313;DHT22;8265;52.622;13.296;2023-05-10T22:41:46;11.90;87.50
16313;DHT22;8265;52.622;13.296;2023-05-10T22:47:07;11.70;89.20
16313;DHT22;8265;52.622;13.296;2023-05-10T22:52:28;11.80;88.90
16313;DHT22;8265;52.622;13.296;2023-05-10T22:57:49;12.10;87.20
16313;DHT22;8265;52.622;13.296;2023-05-10T23:03:10;11.70;88.70
16313;DHT22;8265;52.622;13.296;2023-05-10T23:08:31;11.80;88.60
16313;DHT22;8265;52.622;13.296;2023-05-10T23:13:52;11.70;88.60
16313;DHT22;8265;52.622;13.296;2023-05-10T23:19:13;11.50;89.50
16313;DHT22;8265;52.622;13.296;2023-05-10T23:24:34;11.40;89.50
16313;DHT22;8265;52.622;13.296;2023-05-10T23:29:55;11.30;89.70
16313;DHT22;8265;52.622;13.296;2023-05-10T23:35:16;11.40;89.10
16313;DHT22;8265;52.622;13.296;2023-05-10T23:40:37;11.50;88.10
16313;DHT22;8265;52.622;13.296;2023-05-10T23:45:58;11.30;88.90
16313;DHT22;8265;52.622;13.296;2023-05-10T23:51:19;10.80;90.10
16313;DHT22;8265;52.622;13.296;2023-05-10T23:56:40;10.50;91.10
